Time;durP1;ratioP1;P1;durP2;ratioP2;P2;SDS_P1;SDS_P2;PMS_P1;PMS_P2;Temp;Humidity;BMP_temperature;BMP_pressure;BME280_temperature;BME280_humidity;BME280_pressure;Samples;Min_cycle;Max_cycle;Signal;HPM_P1;HPM_P2
2022/07/05 05:16:52;;;;;;;;;;;;;;;26.08;100.00;98312.84;5433936;24;20273;-79
2022/07/05 05:19:19;;;;;;;;;;;;;;;26.29;99.03;98321.47;4826899;29;19947;-79
2022/07/05 05:21:46;;;;;;;;;;;;;;;26.42;96.63;98316.13;4816485;29;19979;-78
2022/07/05 05:24:13;;;;;;;;;;;;;;;26.61;96.95;98317.38;4817044;29;19950;-78
2022/07/05 05:26:40;;;;;;;;;;;;;;;26.63;96.00;98320.53;4836216;29;20377;-78
2022/07/05 05:29:08;;;;;;;;;;;;;;;26.30;99.57;98326.69;4808318;29;19953;-78
2022/07/05 05:31:35;;;;;;;;;;;;;;;26.61;95.20;98338.25;4831510;29;20336;-79
2022/07/05 05:34:02;;;;;;;;;;;;;;;26.82;94.98;98341.88;4839979;29;19958;-79
2022/07/05 05:36:29;;;;;;;;;;;;;;;26.79;94.49;98333.50;4824904;29;19949;-78
2022/07/05 05:38:57;;;;;;;;;;;;;;;26.94;92.61;98334.16;4832786;29;19982;-78
2022/07/05 05:41:24;;;;;;;;;;;;;;;26.84;93.44;98341.38;4816059;29;19983;-78
2022/07/05 05:43:52;;;;;;;;;;;;;;;26.91;92.53;98340.91;4829732;29;19951;-78
2022/07/05 05:46:19;;;;;;;;;;;;;;;27.06;93.43;98347.31;4826260;29;19951;-78
2022/07/05 05:48:46;;;;;;;;;;;;;;;27.12;88.86;98348.94;4831124;29;19955;-77
2022/07/05 05:51:13;;;;;;;;;;;;;;;27.07;89.27;98360.38;4831759;29;19948;-78
2022/07/05 05:53:41;;;;;;;;;;;;;;;27.30;87.73;98360.06;4827082;29;19957;-78
2022/07/05 05:56:08;;;;;;;;;;;;;;;27.46;87.26;98364.41;4833222;29;19951;-78
2022/07/05 05:58:35;;;;;;;;;;;;;;;27.62;86.90;98371.56;4832747;29;19957;-78
2022/07/05 06:01:05;;;;;;;;;;;;;;;27.79;85.03;98370.38;4823884;29;19972;-78
2022/07/05 06:03:32;;;;;;;;;;;;;;;27.92;85.65;98370.72;4830624;29;19958;-78
2022/07/05 06:06:00;;;;;;;;;;;;;;;28.07;83.37;98367.69;4826248;29;19960;-78
2022/07/05 06:08:27;;;;;;;;;;;;;;;28.05;85.63;98370.28;4824956;29;19957;-78
2022/07/05 06:10:54;;;;;;;;;;;;;;;28.00;85.97;98366.06;4844078;29;19951;-72
2022/07/05 06:13:28;;;;;;;;;;;;;;;27.84;87.68;98366.75;4822480;29;19951;-72
2022/07/05 06:15:55;;;;;;;;;;;;;;;27.80;89.08;98371.94;4814541;29;19981;-72
2022/07/05 06:18:22;;;;;;;;;;;;;;;27.60;91.06;98380.69;4847428;29;19959;-71
2022/07/05 06:20:50;;;;;;;;;;;;;;;27.66;92.65;98366.34;4838736;29;20351;-72
2022/07/05 06:23:17;;;;;;;;;;;;;;;27.64;91.21;98386.19;4846840;29;20277;-72
2022/07/05 06:25:44;;;;;;;;;;;;;;;27.61;92.86;98373.63;4829326;29;19948;-72
2022/07/05 06:28:12;;;;;;;;;;;;;;;27.38;95.44;98374.78;4844993;29;19954;-72
2022/07/05 06:30:39;;;;;;;;;;;;;;;27.34;96.55;98359.81;4839324;29;19960;-72
2022/07/05 06:33:06;;;;;;;;;;;;;;;27.29;97.64;98367.09;4844057;29;19958;-72
2022/07/05 06:35:34;;;;;;;;;;;;;;;27.32;97.85;98366.06;4847185;29;20276;-72
2022/07/05 06:38:03;;;;;;;;;;;;;;;27.40;97.71;98377.13;4845984;29;19953;-72
2022/07/05 06:40:30;;;;;;;;;;;;;;;27.33;97.72;98375.47;4846382;29;19950;-72
2022/07/05 06:42:59;;;;;;;;;;;;;;;27.46;96.79;98375.91;4837054;29;19964;-72
2022/07/05 06:45:37;;;;;;;;;;;;;;;27.45;98.67;98385.78;4802011;29;20339;-72
2022/07/05 06:48:07;;;;;;;;;;;;;;;27.46;98.03;98378.75;4838414;29;19958;-72
2022/07/05 06:50:37;;;;;;;;;;;;;;;27.38;98.77;98380.53;4825900;29;19955;-72
2022/07/05 06:53:04;;;;;;;;;;;;;;;27.43;98.95;98381.84;4826688;29;20298;-72
2022/07/05 06:55:32;;;;;;;;;;;;;;;27.50;99.44;98392.88;4832043;29;19954;-72
2022/07/05 06:58:04;;;;;;;;;;;;;;;27.54;100.00;98381.94;4845304;29;19958;-72
2022/07/05 07:00:39;;;;;;;;;;;;;;;27.69;98.56;98385.44;4845231;29;19951;-72
2022/07/05 07:03:27;;;;;;;;;;;;;;;27.80;98.29;98386.28;4843056;29;19973;-72
2022/07/05 07:06:15;;;;;;;;;;;;;;;27.89;95.83;98385.31;4845459;29;19951;-72
2022/07/05 07:11:28;;;;;;;;;;;;;;;27.87;98.02;98388.72;4845291;29;19949;-72
2022/07/05 07:13:56;;;;;;;;;;;;;;;27.68;99.17;98396.13;4830613;29;19951;-72
2022/07/05 07:16:23;;;;;;;;;;;;;;;27.92;97.88;98398.66;4840635;29;20128;-72
2022/07/05 07:18:51;;;;;;;;;;;;;;;27.98;96.41;98388.78;4829705;29;19958;-72
2022/07/05 07:21:39;;;;;;;;;;;;;;;28.06;99.35;98394.88;4844696;29;19973;-72
2022/07/05 07:24:06;;;;;;;;;;;;;;;28.06;98.29;98385.44;4826678;29;19963;-72
2022/07/05 07:27:02;;;;;;;;;;;;;;;28.05;98.41;98386.75;4832142;29;19956;-72
2022/07/05 07:29:21;;;;;;;;;;;;;;;28.09;96.27;98382.34;4838439;29;19953;-72
2022/07/05 07:31:48;;;;;;;;;;;;;;;28.15;94.61;98382.34;4818356;29;20376;-72
2022/07/05 07:34:15;;;;;;;;;;;;;;;28.37;93.97;98379.56;4833522;29;19948;-72
2022/07/05 07:36:43;;;;;;;;;;;;;;;28.51;92.40;98384.34;4843943;29;19952;-72
2022/07/05 07:39:10;;;;;;;;;;;;;;;28.39;92.48;98372.00;4821406;29;19959;-72
2022/07/05 07:41:38;;;;;;;;;;;;;;;28.48;90.03;98385.38;4829406;29;19967;-72
2022/07/05 07:44:05;;;;;;;;;;;;;;;28.64;89.92;98381.81;4845136;29;19962;-72
2022/07/05 07:46:32;;;;;;;;;;;;;;;28.73;90.71;98381.59;4843289;29;19963;-72
2022/07/05 07:49:00;;;;;;;;;;;;;;;28.80;94.38;98383.97;4844687;29;19957;-72
2022/07/05 07:51:27;;;;;;;;;;;;;;;28.86;86.41;98378.97;4830451;29;19953;-72
2022/07/05 07:53:54;;;;;;;;;;;;;;;28.77;85.12;98385.00;4826299;29;19950;-72
2022/07/05 07:56:39;;;;;;;;;;;;;;;28.78;86.04;98372.19;4839917;29;19957;-72
2022/07/05 07:59:06;;;;;;;;;;;;;;;28.92;87.78;98374.03;4833218;29;19963;-72
2022/07/05 08:01:33;;;;;;;;;;;;;;;29.12;94.08;98375.91;4812406;29;20260;-72
2022/07/05 08:04:03;;;;;;;;;;;;;;;28.95;88.00;98372.22;4813139;29;19956;-72
2022/07/05 08:06:30;;;;;;;;;;;;;;;29.03;87.06;98376.13;4810239;29;20213;-72
2022/07/05 08:08:58;;;;;;;;;;;;;;;29.00;89.37;98377.19;4833415;29;19946;-72
2022/07/05 08:11:25;;;;;;;;;;;;;;;29.09;89.25;98383.47;4841066;29;19954;-72
2022/07/05 08:13:52;;;;;;;;;;;;;;;29.25;88.08;98376.19;4837917;29;19951;-72
2022/07/05 08:16:19;;;;;;;;;;;;;;;29.39;90.88;98375.16;4844173;29;19971;-72
2022/07/05 08:21:36;;;;;;;;;;;;;;;29.42;83.94;98370.44;4844285;29;20248;-72
2022/07/05 08:24:05;;;;;;;;;;;;;;;29.45;86.40;98366.50;4844087;29;19957;-72
2022/07/05 08:26:33;;;;;;;;;;;;;;;29.41;81.99;98371.75;4844131;29;19983;-72
2022/07/05 08:29:03;;;;;;;;;;;;;;;29.10;87.38;98362.00;4844083;29;19949;-72
2022/07/05 08:31:36;;;;;;;;;;;;;;;29.36;86.31;98364.69;4843476;29;19944;-72
2022/07/05 08:34:03;;;;;;;;;;;;;;;29.53;84.14;98358.91;4843970;29;19952;-72
2022/07/05 08:36:31;;;;;;;;;;;;;;;29.35;82.54;98368.06;4828453;29;19958;-72
2022/07/05 08:38:58;;;;;;;;;;;;;;;29.38;93.64;98367.81;4844245;29;19959;-72
2022/07/05 08:41:26;;;;;;;;;;;;;;;29.49;85.78;98364.16;4843983;29;19953;-72
2022/07/05 08:43:53;;;;;;;;;;;;;;;29.53;88.47;98367.53;4844142;29;19971;-72
2022/07/05 08:46:21;;;;;;;;;;;;;;;29.61;84.63;98357.84;4843951;29;19957;-72
2022/07/05 08:48:49;;;;;;;;;;;;;;;29.52;89.20;98360.19;4818029;29;19956;-72
2022/07/05 08:51:23;;;;;;;;;;;;;;;29.31;86.85;98365.47;4843817;29;19990;-72
2022/07/05 08:53:51;;;;;;;;;;;;;;;29.22;86.18;98359.97;4843848;29;19956;-72
2022/07/05 08:56:19;;;;;;;;;;;;;;;29.23;84.86;98355.75;4843894;29;19953;-72
2022/07/05 08:58:50;;;;;;;;;;;;;;;29.11;86.41;98357.81;4843598;29;19950;-72
2022/07/05 09:01:18;;;;;;;;;;;;;;;29.43;87.05;98360.47;4843641;29;19948;-72
2022/07/05 09:03:49;;;;;;;;;;;;;;;29.46;85.01;98363.09;4844282;29;19975;-73
2022/07/05 09:06:18;;;;;;;;;;;;;;;29.12;82.84;98356.53;4843616;29;19951;-73
2022/07/05 09:08:46;;;;;;;;;;;;;;;29.42;80.87;98362.56;4843703;29;19957;-72
2022/07/05 09:11:14;;;;;;;;;;;;;;;29.57;83.21;98365.97;4843521;29;20091;-72
2022/07/05 09:13:47;;;;;;;;;;;;;;;29.62;88.02;98361.50;4843838;29;19959;-72
2022/07/05 09:16:29;;;;;;;;;;;;;;;29.63;85.43;98363.88;4846955;29;20267;-72
2022/07/05 09:19:04;;;;;;;;;;;;;;;29.59;84.11;98363.34;4847043;29;19956;-72
2022/07/05 09:21:31;;;;;;;;;;;;;;;29.73;84.75;98365.19;4835301;29;20224;-72
2022/07/05 09:23:59;;;;;;;;;;;;;;;29.78;81.58;98361.53;4833089;29;20388;-72
2022/07/05 09:26:32;;;;;;;;;;;;;;;29.51;87.17;98362.31;4832046;29;19962;-72
2022/07/05 09:29:00;;;;;;;;;;;;;;;29.53;89.83;98356.03;4815769;29;19954;-72
2022/07/05 09:31:38;;;;;;;;;;;;;;;29.74;100.00;98357.28;4827763;29;20333;-72
2022/07/05 09:34:07;;;;;;;;;;;;;;;29.74;84.16;98358.09;4832502;29;19956;-73
2022/07/05 09:36:58;;;;;;;;;;;;;;;29.88;85.47;98350.50;4828315;29;19979;-72
2022/07/05 09:39:31;;;;;;;;;;;;;;;29.58;87.32;98353.13;4820209;29;19947;-72
2022/07/05 09:42:11;;;;;;;;;;;;;;;29.56;81.04;98347.13;4826520;29;19959;-72
2022/07/05 09:44:41;;;;;;;;;;;;;;;29.52;88.59;98346.59;4829959;29;19948;-72
2022/07/05 09:47:10;;;;;;;;;;;;;;;29.21;93.71;98343.97;4825045;29;19957;-72
2022/07/05 09:49:38;;;;;;;;;;;;;;;29.49;92.68;98349.75;4825845;29;19963;-72
2022/07/05 09:52:31;;;;;;;;;;;;;;;29.74;90.53;98342.88;4825046;29;20031;-73
2022/07/05 09:55:10;;;;;;;;;;;;;;;29.87;93.25;98343.16;4819192;29;20335;-72
2022/07/05 09:57:41;;;;;;;;;;;;;;;29.85;89.81;98343.69;4832926;29;19950;-73
2022/07/05 10:00:09;;;;;;;;;;;;;;;29.72;91.95;98348.38;4836220;29;20345;-72
2022/07/05 10:02:40;;;;;;;;;;;;;;;29.93;92.92;98341.81;4816559;29;20628;-72
2022/07/05 10:05:22;;;;;;;;;;;;;;;30.03;90.08;98341.53;4835138;29;19951;-72
2022/07/05 10:07:51;;;;;;;;;;;;;;;29.84;90.02;98339.22;4841587;29;19950;-72
2022/07/05 10:10:19;;;;;;;;;;;;;;;29.93;94.07;98335.28;4843273;29;19955;-72
2022/07/05 10:12:48;;;;;;;;;;;;;;;29.86;88.80;98341.56;4838424;29;19953;-72
2022/07/05 10:15:25;;;;;;;;;;;;;;;30.04;90.73;98340.22;4832991;29;19954;-72
2022/07/05 10:17:54;;;;;;;;;;;;;;;30.06;88.27;98334.69;4829689;29;19980;-72
2022/07/05 10:20:27;;;;;;;;;;;;;;;30.14;83.29;98336.50;4841367;29;19957;-72
2022/07/05 10:22:55;;;;;;;;;;;;;;;30.06;84.26;98329.72;4816515;29;19970;-72
2022/07/05 10:25:26;;;;;;;;;;;;;;;30.19;84.75;98337.81;4826957;29;19952;-73
2022/07/05 10:27:55;;;;;;;;;;;;;;;30.18;85.07;98331.25;4830702;29;19947;-73
2022/07/05 10:30:22;;;;;;;;;;;;;;;30.27;85.04;98327.28;4826294;29;19953;-72
2022/07/05 10:32:51;;;;;;;;;;;;;;;30.34;82.17;98336.22;4825655;29;19952;-72
2022/07/05 10:35:18;;;;;;;;;;;;;;;30.20;77.94;98334.38;4843482;29;19954;-73
2022/07/05 10:37:49;;;;;;;;;;;;;;;30.28;80.68;98320.97;4839767;29;19960;-72
2022/07/05 10:40:18;;;;;;;;;;;;;;;30.32;81.34;98327.25;4828420;29;19971;-72
2022/07/05 10:42:48;;;;;;;;;;;;;;;30.47;80.46;98330.63;4828899;29;19970;-72
2022/07/05 10:45:22;;;;;;;;;;;;;;;30.27;75.58;98322.31;4830790;29;20366;-72
2022/07/05 10:48:08;;;;;;;;;;;;;;;30.38;81.96;98328.03;4832334;29;19957;-72
2022/07/05 10:50:54;;;;;;;;;;;;;;;29.91;81.80;98323.47;4832733;29;20343;-72
2022/07/05 10:53:25;;;;;;;;;;;;;;;30.19;83.43;98321.28;4829504;29;19962;-72
2022/07/05 10:56:11;;;;;;;;;;;;;;;30.24;80.59;98325.47;4844018;29;19951;-72
2022/07/05 10:58:41;;;;;;;;;;;;;;;30.17;80.81;98326.81;4828313;29;20339;-72
2022/07/05 11:01:12;;;;;;;;;;;;;;;30.04;80.78;98325.78;4838483;29;19949;-73
2022/07/05 11:03:44;;;;;;;;;;;;;;;30.17;77.42;98315.28;4828433;29;19973;-73
2022/07/05 11:06:30;;;;;;;;;;;;;;;30.25;82.81;98315.50;4823294;29;19950;-73
2022/07/05 11:09:00;;;;;;;;;;;;;;;30.22;77.21;98319.44;4828977;29;19958;-73
2022/07/05 11:11:31;;;;;;;;;;;;;;;30.17;83.78;98315.28;4829901;29;20007;-72
2022/07/05 11:14:01;;;;;;;;;;;;;;;30.17;79.31;98315.28;4838071;29;19953;-73
2022/07/05 11:16:28;;;;;;;;;;;;;;;30.39;81.06;98314.41;4816514;29;19976;-72
2022/07/05 11:19:12;;;;;;;;;;;;;;;30.21;75.01;98315.75;4818687;29;19959;-72
2022/07/05 11:21:43;;;;;;;;;;;;;;;30.42;72.87;98304.69;4828401;29;19950;-74
2022/07/05 11:24:24;;;;;;;;;;;;;;;30.45;77.90;98318.81;4835022;29;19967;-72
2022/07/05 11:26:55;;;;;;;;;;;;;;;30.48;75.79;98316.97;4827264;29;19947;-72
2022/07/05 11:29:43;;;;;;;;;;;;;;;30.47;79.25;98304.66;4826931;29;19960;-72
2022/07/05 11:32:11;;;;;;;;;;;;;;;30.58;77.46;98303.00;4837940;29;20237;-71
2022/07/05 11:34:39;;;;;;;;;;;;;;;30.73;75.19;98307.13;4826324;29;19960;-71
2022/07/05 11:37:28;;;;;;;;;;;;;;;30.76;74.76;98306.06;4834994;29;19957;-72
2022/07/05 11:40:06;;;;;;;;;;;;;;;30.68;77.66;98299.28;4834157;29;19952;-71
2022/07/05 11:42:41;;;;;;;;;;;;;;;30.68;72.37;98298.50;4841070;29;20262;-71
2022/07/05 11:45:09;;;;;;;;;;;;;;;30.60;73.90;98306.16;4836010;29;19967;-71
2022/07/05 11:47:36;;;;;;;;;;;;;;;30.75;75.60;98301.59;4828876;29;19959;-71
2022/07/05 11:50:07;;;;;;;;;;;;;;;30.69;73.56;98300.84;4836018;29;19954;-77
2022/07/05 11:52:35;;;;;;;;;;;;;;;30.53;74.18;98290.97;4835705;29;20304;-71
2022/07/05 11:55:03;;;;;;;;;;;;;;;30.42;77.71;98291.03;4824209;29;20022;-69
2022/07/05 11:57:33;;;;;;;;;;;;;;;30.48;72.44;98293.88;4844886;29;20532;-72
2022/07/05 12:00:00;;;;;;;;;;;;;;;30.32;70.51;98289.72;4844926;29;19957;-71
2022/07/05 12:02:27;;;;;;;;;;;;;;;30.42;70.89;98284.50;4839920;29;19968;-76
2022/07/05 12:04:56;;;;;;;;;;;;;;;30.47;86.47;98284.44;4838334;29;20364;-71
2022/07/05 12:07:24;;;;;;;;;;;;;;;30.23;74.76;98269.84;4841285;29;19984;-71
2022/07/05 12:12:43;;;;;;;;;;;;;;;30.36;70.39;98275.06;4826516;29;19952;-70
2022/07/05 12:15:11;;;;;;;;;;;;;;;30.39;74.39;98277.69;4822811;29;19961;-71
2022/07/05 12:17:39;;;;;;;;;;;;;;;30.54;75.66;98268.69;4815211;29;19986;-70
2022/07/05 12:20:07;;;;;;;;;;;;;;;30.63;76.34;98268.34;4826419;29;20358;-70
2022/07/05 12:22:35;;;;;;;;;;;;;;;30.73;74.51;98277.47;4827161;29;20357;-70
2022/07/05 12:25:04;;;;;;;;;;;;;;;30.66;70.96;98281.72;4825007;29;19986;-71
2022/07/05 12:27:32;;;;;;;;;;;;;;;30.75;69.00;98274.81;4821765;29;20282;-71
2022/07/05 12:30:02;;;;;;;;;;;;;;;30.86;70.73;98277.63;4822074;29;19963;-71
2022/07/05 12:32:30;;;;;;;;;;;;;;;30.86;72.27;98271.88;4823336;29;20373;-71
2022/07/05 12:34:58;;;;;;;;;;;;;;;30.85;71.38;98268.19;4825104;29;19964;-71
2022/07/05 12:37:31;;;;;;;;;;;;;;;30.76;65.01;98262.75;4819993;29;19950;-70
2022/07/05 12:40:06;;;;;;;;;;;;;;;30.73;68.88;98263.03;4824204;29;20336;-71
2022/07/05 12:42:37;;;;;;;;;;;;;;;30.66;64.02;98261.50;4825328;29;19956;-71
2022/07/05 12:45:11;;;;;;;;;;;;;;;30.72;68.44;98256.47;4823593;29;19979;-70
2022/07/05 12:47:50;;;;;;;;;;;;;;;30.70;68.80;98256.22;4820693;29;19959;-70
2022/07/05 12:50:17;;;;;;;;;;;;;;;30.65;63.04;98254.16;4819199;29;20385;-70
2022/07/05 12:52:56;;;;;;;;;;;;;;;30.77;67.08;98249.06;4826363;29;20239;-70
2022/07/05 12:58:09;;;;;;;;;;;;;;;30.67;63.60;98250.72;4820133;29;20365;-70
2022/07/05 13:00:38;;;;;;;;;;;;;;;30.61;59.74;98247.09;4819977;29;19957;-70
2022/07/05 13:03:07;;;;;;;;;;;;;;;30.72;68.57;98238.34;4824866;29;19972;-70
2022/07/05 13:05:36;;;;;;;;;;;;;;;30.81;66.68;98240.94;4823082;29;20261;-70
2022/07/05 13:08:03;;;;;;;;;;;;;;;30.79;64.43;98238.56;4826436;29;19959;-70
2022/07/05 13:10:33;;;;;;;;;;;;;;;30.81;62.70;98238.03;4818351;29;20221;-70
2022/07/05 13:13:06;;;;;;;;;;;;;;;30.90;61.05;98238.50;4821251;29;19956;-70
2022/07/05 13:15:37;;;;;;;;;;;;;;;31.03;64.03;98232.09;4814473;29;19959;-70
2022/07/05 13:18:04;;;;;;;;;;;;;;;31.07;65.63;98236.25;4821273;29;19976;-70
2022/07/05 13:20:31;;;;;;;;;;;;;;;30.96;64.48;98232.69;4826537;29;19952;-70
2022/07/05 13:22:59;;;;;;;;;;;;;;;30.99;65.25;98231.59;4833737;29;19954;-70
2022/07/05 13:25:26;;;;;;;;;;;;;;;31.05;60.37;98223.69;4821257;29;19975;-70
2022/07/05 13:27:55;;;;;;;;;;;;;;;31.11;64.25;98224.41;4814883;29;19950;-70
2022/07/05 13:30:22;;;;;;;;;;;;;;;31.14;63.15;98220.44;4832624;29;19959;-70
2022/07/05 13:32:50;;;;;;;;;;;;;;;31.26;62.85;98219.00;4822456;29;19953;-70
2022/07/05 13:35:17;;;;;;;;;;;;;;;31.31;63.48;98220.25;4829841;29;20393;-70
2022/07/05 13:37:44;;;;;;;;;;;;;;;31.34;61.87;98224.97;4817804;29;19953;-70
2022/07/05 13:40:11;;;;;;;;;;;;;;;31.22;57.84;98223.53;4827287;29;19950;-70
2022/07/05 13:42:39;;;;;;;;;;;;;;;31.24;62.29;98227.44;4826227;29;19949;-70
2022/07/05 13:45:06;;;;;;;;;;;;;;;31.22;66.57;98215.63;4818580;29;19969;-70
2022/07/05 13:47:33;;;;;;;;;;;;;;;31.25;66.98;98220.34;4819599;29;20349;-70
2022/07/05 13:52:47;;;;;;;;;;;;;;;31.32;63.47;98213.19;4822509;29;19963;-70
2022/07/05 13:55:14;;;;;;;;;;;;;;;31.33;63.61;98215.50;4825841;29;19981;-70
2022/07/05 13:57:43;;;;;;;;;;;;;;;31.31;60.89;98214.47;4829927;29;19951;-70
2022/07/05 14:00:12;;;;;;;;;;;;;;;31.25;63.43;98203.00;4829538;29;19951;-70
2022/07/05 14:02:39;;;;;;;;;;;;;;;31.10;58.19;98208.41;4832664;29;19955;-70
2022/07/05 14:05:07;;;;;;;;;;;;;;;31.17;57.83;98208.59;4825339;29;19972;-70
2022/07/05 14:07:34;;;;;;;;;;;;;;;31.21;59.54;98205.41;4824704;29;19952;-70
2022/07/05 14:10:02;;;;;;;;;;;;;;;31.19;68.37;98191.50;4826207;29;20095;-70
2022/07/05 14:12:29;;;;;;;;;;;;;;;31.16;68.82;98189.69;4827990;29;20571;-70
2022/07/05 14:14:56;;;;;;;;;;;;;;;31.18;66.97;98194.91;4837543;29;20591;-70
2022/07/05 14:17:24;;;;;;;;;;;;;;;31.19;64.12;98188.59;4830511;29;19967;-70
2022/07/05 14:19:51;;;;;;;;;;;;;;;31.10;64.46;98199.75;4831567;29;20344;-70
2022/07/05 14:22:18;;;;;;;;;;;;;;;31.14;66.68;98195.22;4831908;29;19948;-70
2022/07/05 14:24:45;;;;;;;;;;;;;;;31.20;68.25;98186.50;4825723;29;20386;-70
2022/07/05 14:27:13;;;;;;;;;;;;;;;31.18;71.03;98186.25;4828562;29;19951;-70
2022/07/05 14:29:40;;;;;;;;;;;;;;;31.21;70.90;98185.16;4828223;29;19952;-70
2022/07/05 14:32:07;;;;;;;;;;;;;;;31.27;67.68;98177.25;4828611;29;19963;-70
2022/07/05 14:34:35;;;;;;;;;;;;;;;31.26;70.55;98175.66;4828355;29;19952;-70
2022/07/05 14:37:02;;;;;;;;;;;;;;;31.35;71.80;98174.53;4828074;29;19972;-70
2022/07/05 14:39:29;;;;;;;;;;;;;;;31.32;69.53;98169.84;4828101;29;19957;-70
2022/07/05 14:41:56;;;;;;;;;;;;;;;31.39;72.41;98169.22;4828910;29;20228;-70
2022/07/05 14:44:24;;;;;;;;;;;;;;;31.32;70.04;98172.72;4828489;29;19952;-70
2022/07/05 14:46:51;;;;;;;;;;;;;;;31.30;66.69;98176.13;4828016;29;20341;-70
2022/07/05 14:49:18;;;;;;;;;;;;;;;31.24;66.69;98166.75;4827608;29;19948;-70
2022/07/05 14:51:45;;;;;;;;;;;;;;;31.24;68.10;98178.31;4829992;29;19958;-70
2022/07/05 14:54:12;;;;;;;;;;;;;;;31.22;68.03;98169.41;4826695;29;19951;-70
2022/07/05 14:56:40;;;;;;;;;;;;;;;31.15;70.84;98167.88;4829590;29;19983;-70
2022/07/05 14:59:07;;;;;;;;;;;;;;;31.01;68.16;98174.88;4819230;29;19967;-70
2022/07/05 15:01:34;;;;;;;;;;;;;;;31.08;70.58;98170.63;4837851;29;20372;-70
2022/07/05 15:04:01;;;;;;;;;;;;;;;31.05;68.98;98180.34;4844442;29;19951;-70
2022/07/05 15:06:28;;;;;;;;;;;;;;;30.96;67.00;98180.72;4837030;29;20259;-70
2022/07/05 15:08:56;;;;;;;;;;;;;;;30.96;67.57;98174.94;4835276;29;19952;-70
2022/07/05 15:11:25;;;;;;;;;;;;;;;30.99;72.41;98171.75;4838419;29;19965;-70
2022/07/05 15:13:52;;;;;;;;;;;;;;;30.97;72.45;98170.72;4839933;29;19963;-70
2022/07/05 15:16:19;;;;;;;;;;;;;;;30.91;71.13;98184.44;4838030;29;19972;-70
2022/07/05 15:18:47;;;;;;;;;;;;;;;30.87;71.97;98183.91;4830590;29;19956;-70
2022/07/05 15:21:14;;;;;;;;;;;;;;;30.77;70.63;98171.13;4832730;29;19960;-70
2022/07/05 15:23:41;;;;;;;;;;;;;;;30.79;73.03;98168.50;4836229;29;19955;-70
2022/07/05 15:26:08;;;;;;;;;;;;;;;30.71;73.09;98170.41;4826456;29;19970;-70
2022/07/05 15:28:35;;;;;;;;;;;;;;;30.72;75.60;98166.19;4842988;29;20215;-70
2022/07/05 15:31:03;;;;;;;;;;;;;;;30.69;69.82;98167.28;4816113;29;20257;-70
2022/07/05 15:33:30;;;;;;;;;;;;;;;30.67;72.11;98167.00;4830361;29;19952;-70
2022/07/05 15:35:57;;;;;;;;;;;;;;;30.63;76.33;98169.41;4833814;29;19968;-70
2022/07/05 15:38:26;;;;;;;;;;;;;;;30.64;76.06;98156.56;4839570;29;19950;-70
2022/07/05 15:40:54;;;;;;;;;;;;;;;30.63;78.80;98163.63;4843401;29;20373;-70
2022/07/05 15:43:25;;;;;;;;;;;;;;;30.63;76.48;98161.53;4826317;29;20246;-70
2022/07/05 15:45:53;;;;;;;;;;;;;;;30.61;74.10;98167.06;4826554;29;19977;-70
2022/07/05 15:48:21;;;;;;;;;;;;;;;30.66;74.87;98157.59;4832495;29;19954;-70
2022/07/05 15:50:48;;;;;;;;;;;;;;;30.63;74.22;98152.09;4827328;29;19962;-70
2022/07/05 15:53:15;;;;;;;;;;;;;;;30.66;74.56;98156.81;4827807;29;19947;-70
2022/07/05 15:55:42;;;;;;;;;;;;;;;30.63;75.86;98152.09;4827801;29;19954;-70
2022/07/05 15:58:10;;;;;;;;;;;;;;;30.61;79.25;98148.97;4827001;29;20341;-70
2022/07/05 16:00:37;;;;;;;;;;;;;;;30.63;70.80;98154.97;4825495;29;19954;-70
2022/07/05 16:03:04;;;;;;;;;;;;;;;30.61;72.28;98140.31;4826236;29;19978;-70
2022/07/05 16:05:32;;;;;;;;;;;;;;;30.60;72.24;98138.72;4830920;29;19975;-70
2022/07/05 16:07:59;;;;;;;;;;;;;;;30.53;75.65;98143.78;4825602;29;19997;-70
2022/07/05 16:10:26;;;;;;;;;;;;;;;30.48;75.02;98138.06;4822567;29;19950;-70
2022/07/05 16:12:59;;;;;;;;;;;;;;;30.47;75.97;98133.59;4824347;29;19950;-70
2022/07/05 16:18:12;;;;;;;;;;;;;;;30.47;75.88;98136.47;4828918;29;19967;-70
2022/07/05 16:20:42;;;;;;;;;;;;;;;30.47;76.20;98134.38;4834061;29;19950;-70
2022/07/05 16:23:10;;;;;;;;;;;;;;;30.50;73.71;98135.41;4826836;29;19951;-70
2022/07/05 16:25:37;;;;;;;;;;;;;;;30.46;75.45;98137.81;4808357;29;19971;-70
2022/07/05 16:28:04;;;;;;;;;;;;;;;30.44;77.64;98134.69;4808557;29;19956;-70
2022/07/05 16:30:32;;;;;;;;;;;;;;;30.41;77.28;98145.19;4808601;29;19956;-70
2022/07/05 16:32:59;;;;;;;;;;;;;;;30.37;75.03;98144.69;4809251;29;19957;-70
2022/07/05 16:35:26;;;;;;;;;;;;;;;30.37;75.26;98143.91;4808722;29;19958;-70
2022/07/05 16:37:54;;;;;;;;;;;;;;;30.28;75.71;98145.00;4808716;29;19955;-70
2022/07/05 16:40:21;;;;;;;;;;;;;;;30.25;75.46;98136.63;4808715;29;19965;-70
2022/07/05 16:42:48;;;;;;;;;;;;;;;30.19;77.62;98145.31;4811641;29;19959;-70
2022/07/05 16:45:15;;;;;;;;;;;;;;;30.13;78.33;98138.81;4818358;29;19957;-69
2022/07/05 16:47:43;;;;;;;;;;;;;;;30.11;78.91;98144.31;4822232;29;19949;-69
2022/07/05 16:50:10;;;;;;;;;;;;;;;30.11;78.80;98143.53;4830966;29;19955;-69
2022/07/05 16:52:40;;;;;;;;;;;;;;;30.09;79.50;98146.19;4833997;29;19958;-69
2022/07/05 16:55:08;;;;;;;;;;;;;;;30.09;81.99;98151.94;4830220;29;19955;-69
2022/07/05 16:57:35;;;;;;;;;;;;;;;30.10;78.33;98142.78;4820852;29;19956;-69
2022/07/05 17:00:04;;;;;;;;;;;;;;;30.06;79.00;98142.25;4828853;29;20253;-69
2022/07/05 17:02:33;;;;;;;;;;;;;;;30.03;78.61;98151.97;4835342;29;19961;-70
2022/07/05 17:05:00;;;;;;;;;;;;;;;29.98;78.97;98144.13;4837824;29;19955;-69
2022/07/05 17:07:28;;;;;;;;;;;;;;;30.01;78.64;98139.41;4828984;29;20265;-69
2022/07/05 17:09:55;;;;;;;;;;;;;;;29.99;79.25;98134.19;4804514;29;19951;-70
2022/07/05 17:12:23;;;;;;;;;;;;;;;29.94;81.40;98140.75;4830404;29;19958;-69
2022/07/05 17:14:51;;;;;;;;;;;;;;;29.93;81.47;98139.22;4818745;29;20276;-70
2022/07/05 17:17:18;;;;;;;;;;;;;;;29.88;80.10;98137.91;4822485;29;20000;-69
2022/07/05 17:19:46;;;;;;;;;;;;;;;29.84;81.29;98134.53;4823704;29;20342;-68
2022/07/05 17:22:13;;;;;;;;;;;;;;;29.84;82.97;98142.38;4829964;29;19951;-69
2022/07/05 17:24:40;;;;;;;;;;;;;;;29.82;83.87;98151.59;4837061;29;19966;-70
2022/07/05 17:27:08;;;;;;;;;;;;;;;29.78;83.59;98144.53;4832521;29;19979;-69
2022/07/05 17:29:35;;;;;;;;;;;;;;;29.75;83.90;98142.69;4838108;29;20252;-70
2022/07/05 17:32:02;;;;;;;;;;;;;;;29.73;84.17;98143.22;4826601;29;19956;-69
2022/07/05 17:34:29;;;;;;;;;;;;;;;29.71;84.34;98142.19;4828230;29;19960;-69
2022/07/05 17:36:57;;;;;;;;;;;;;;;29.67;85.99;98138.78;4827982;29;20298;-69
2022/07/05 17:39:25;;;;;;;;;;;;;;;29.60;88.53;98145.91;4838094;29;19963;-69
2022/07/05 17:41:52;;;;;;;;;;;;;;;29.51;90.46;98146.22;4832020;29;19958;-69
2022/07/05 17:44:19;;;;;;;;;;;;;;;29.45;90.08;98161.94;4830889;29;19951;-69
2022/07/05 17:46:47;;;;;;;;;;;;;;;29.40;90.67;98146.22;4808083;29;19969;-69
2022/07/05 17:49:15;;;;;;;;;;;;;;;29.37;90.91;98150.16;4840090;29;20218;-69
2022/07/05 17:51:45;;;;;;;;;;;;;;;29.35;90.11;98149.13;4821552;29;21076;-68
2022/07/05 17:54:32;;;;;;;;;;;;;;;29.34;89.30;98151.25;4824998;29;19954;-67
2022/07/05 17:57:00;;;;;;;;;;;;;;;29.35;88.65;98152.00;4823392;29;19954;-70
2022/07/05 17:59:27;;;;;;;;;;;;;;;29.32;91.46;98153.09;4817581;29;20351;-70
2022/07/05 18:01:55;;;;;;;;;;;;;;;29.30;90.63;98153.59;4821920;29;19952;-71
2022/07/05 18:04:22;;;;;;;;;;;;;;;29.23;91.44;98157.81;4825974;29;19986;-68
2022/07/05 18:06:49;;;;;;;;;;;;;;;29.16;92.39;98157.53;4823434;29;19973;-70
2022/07/05 18:09:16;;;;;;;;;;;;;;;29.09;92.69;98156.00;4816759;29;20343;-69
2022/07/05 18:11:44;;;;;;;;;;;;;;;29.05;92.29;98164.09;4818381;29;20317;-68
2022/07/05 18:14:12;;;;;;;;;;;;;;;28.98;94.96;98160.97;4825322;29;19958;-69
2022/07/05 18:16:39;;;;;;;;;;;;;;;28.90;95.58;98160.75;4823242;29;20351;-68
2022/07/05 18:19:06;;;;;;;;;;;;;;;28.80;97.63;98165.19;4822594;29;19959;-70
2022/07/05 18:21:35;;;;;;;;;;;;;;;28.70;98.50;98155.25;4816891;29;19953;-73
2022/07/05 18:24:02;;;;;;;;;;;;;;;28.64;98.38;98158.13;4825996;29;19963;-76
2022/07/05 18:26:30;;;;;;;;;;;;;;;28.62;97.67;98157.09;4824607;29;19961;-75
2022/07/05 18:29:17;;;;;;;;;;;;;;;28.60;98.49;98165.47;4821093;29;19958;-75